Time;durP1;ratioP1;P1;durP2;ratioP2;P2;SDS_P1;SDS_P2;PMS_P1;PMS_P2;Temp;Humidity;BMP_temperature;BMP_pressure;BME280_temperature;BME280_humidity;BME280_pressure;Samples;Min_cycle;Max_cycle;Signal;HPM_P1;HPM_P2
2021/07/20 00:04:22;;;;;;;1999.90;999.90;;;19.20;99.90;;;;;;5041967;28;20414;-87
2021/07/20 00:07:19;;;;;;;1999.90;999.90;;;19.10;99.90;;;;;;4994447;28;21090;-87
2021/07/20 00:13:55;;;;;;;1999.90;999.90;;;19.00;99.90;;;;;;5005434;28;20930;-87
2021/07/20 00:17:07;;;;;;;1999.90;999.90;;;19.00;99.90;;;;;;5010939;28;20436;-87
2021/07/20 00:24:04;;;;;;;;;;;;;;;;;;;;;
2021/07/20 00:31:11;;;;;;;;;;;;;;;;;;;;;
2021/07/20 00:38:12;;;;;;;1999.90;999.90;;;18.80;99.90;;;;;;5058911;28;20845;-87
2021/07/20 00:41:14;;;;;;;;;;;;;;;;;;;;;
2021/07/20 00:43:58;;;;;;;1999.90;999.90;;;18.70;99.90;;;;;;5070573;28;20411;-87
2021/07/20 00:46:50;;;;;;;1999.90;999.90;;;18.70;99.90;;;;;;5072372;28;20430;-87
2021/07/20 00:49:40;;;;;;;1999.90;999.90;;;18.70;99.90;;;;;;5071886;28;20423;-87
2021/07/20 00:52:47;;;;;;;1999.90;999.90;;;18.60;99.90;;;;;;5071683;28;20501;-87
2021/07/20 00:55:53;;;;;;;1999.90;999.90;;;18.60;99.90;;;;;;5072737;28;20912;-87
2021/07/20 00:59:02;;;;;;;1999.90;999.90;;;18.60;99.90;;;;;;4993002;28;20464;-87
2021/07/20 01:02:32;;;;;;;1999.90;999.90;;;18.60;99.90;;;;;;4985469;28;20498;-87
2021/07/20 01:05:22;;;;;;;1999.90;999.90;;;18.50;99.90;;;;;;5066190;28;20796;-87
2021/07/20 01:08:30;;;;;;;1999.90;999.90;;;18.50;99.90;;;;;;5086082;22;20505;-88
2021/07/20 01:14:32;;;;;;;1999.90;999.90;;;18.40;99.90;;;;;;4987164;28;20501;-88
2021/07/20 01:32:01;;;;;;;1999.90;999.90;;;18.30;99.90;;;;;;5053839;28;20829;-87
2021/07/20 01:38:46;;;;;;;1999.90;999.90;;;18.20;99.90;;;;;;5060700;28;20461;-87
2021/07/20 01:41:27;;;;;;;1999.90;999.90;;;18.20;99.90;;;;;;5027984;28;20423;-87
2021/07/20 01:44:51;;;;;;;1999.90;999.90;;;18.10;99.90;;;;;;4993843;28;20425;-87
2021/07/20 01:47:54;;;;;;;1999.90;999.90;;;18.10;99.90;;;;;;4953503;28;20461;-87
2021/07/20 01:51:20;;;;;;;1999.90;999.90;;;18.00;99.90;;;;;;4962478;28;20445;-87
2021/07/20 02:04:12;;;;;;;1999.90;999.90;;;17.90;99.90;;;;;;5079074;28;20776;-88
2021/07/20 02:10:44;;;;;;;1999.90;999.90;;;17.90;99.90;;;;;;5096163;28;20844;-87
2021/07/20 02:17:03;;;;;;;1999.90;999.90;;;17.80;99.90;;;;;;5086560;28;20453;-87
2021/07/20 02:24:16;;;;;;;1999.90;999.90;;;17.80;99.90;;;;;;4952489;28;20404;-88
2021/07/20 02:27:20;;;;;;;1999.90;999.90;;;17.70;99.90;;;;;;4964959;28;20454;-88
2021/07/20 02:34:13;;;;;;;;;;;;;;;;;;;;;
2021/07/20 02:37:19;;;;;;;1999.90;999.90;;;17.60;99.90;;;;;;4905155;29;20471;-88
2021/07/20 02:40:42;;;;;;;1999.90;999.90;;;17.60;99.90;;;;;;4951296;28;20430;-88
2021/07/20 02:46:41;;;;;;;;;;;;;;;;;;;;;
2021/07/20 02:49:56;;;;;;;1999.90;999.90;;;17.50;99.90;;;;;;5094805;28;20420;-88
2021/07/20 02:52:54;;;;;;;1999.90;999.90;;;17.50;99.90;;;;;;5024111;28;20969;-88
2021/07/20 03:02:57;;;;;;;1999.90;999.90;;;17.40;99.90;;;;;;5055809;28;20770;-88
2021/07/20 03:12:13;;;;;;;1999.90;999.90;;;17.30;99.90;;;;;;5249475;22;20470;-86
2021/07/20 03:15:08;;;;;;;1999.90;999.90;;;17.20;99.90;;;;;;5073972;28;20851;-85
2021/07/20 03:17:50;;;;;;;;;;;;;;;;;;;;;
2021/07/20 03:20:20;;;;;;;1999.90;999.90;;;17.20;99.90;;;;;;5094592;28;20415;-86
2021/07/20 03:23:02;;;;;;;1999.90;999.90;;;17.10;99.90;;;;;;5094896;28;20815;-86
2021/07/20 03:26:04;;;;;;;1999.90;999.90;;;17.10;99.90;;;;;;5093681;28;20412;-85
2021/07/20 03:28:34;;;;;;;1999.90;999.90;;;17.10;99.90;;;;;;5094583;28;20449;-86
2021/07/20 03:31:09;;;;;;;1999.90;999.90;;;17.10;99.90;;;;;;5093103;28;20439;-86
2021/07/20 03:34:19;;;;;;;1999.90;999.90;;;17.10;99.90;;;;;;5093747;28;20812;-86
2021/07/20 03:36:57;;;;;;;1999.90;999.90;;;17.10;99.90;;;;;;5091292;28;20445;-85
2021/07/20 03:39:47;;;;;;;1999.90;999.90;;;17.00;99.90;;;;;;5094402;28;20400;-86
2021/07/20 03:43:04;;;;;;;1999.90;999.90;;;17.00;99.90;;;;;;5094057;28;20966;-86
2021/07/20 03:46:06;;;;;;;;;;;;;;;;;;;;;
2021/07/20 03:49:47;;;;;;;1999.90;999.90;;;16.90;99.90;;;;;;5093244;28;20399;-86
2021/07/20 03:53:05;;;;;;;1999.90;999.90;;;16.90;99.90;;;;;;4992496;28;20420;-86
2021/07/20 03:56:07;;;;;;;1999.90;999.90;;;16.90;99.90;;;;;;4917379;28;20416;-85
2021/07/20 03:58:52;;;;;;;;;;;;;;;;;;;;;
2021/07/20 04:01:45;;;;;;;1999.90;999.90;;;16.80;99.90;;;;;;5046744;28;20413;-85
2021/07/20 04:07:55;;;;;;;1999.90;999.90;;;16.80;99.90;;;;;;5089996;22;20703;-86
2021/07/20 04:10:51;;;;;;;1999.90;999.90;;;16.80;99.90;;;;;;5053468;28;20419;-85
2021/07/20 04:14:00;;;;;;;;;;;;;;;;;;;;;
2021/07/20 04:20:36;;;;;;;1999.90;999.90;;;16.80;99.90;;;;;;5006646;28;20404;-86
2021/07/20 04:23:44;;;;;;;1999.90;999.90;;;16.80;99.90;;;;;;5050037;28;20456;-85
2021/07/20 04:26:54;;;;;;;1999.90;999.90;;;16.80;99.90;;;;;;5072964;28;20423;-85
2021/07/20 04:29:51;;;;;;;1999.90;999.90;;;16.80;99.90;;;;;;5073628;28;20401;-86
2021/07/20 04:33:24;;;;;;;1999.90;999.90;;;16.80;99.90;;;;;;5073472;28;20394;-86
2021/07/20 04:35:42;;;;;;;;;;;;;;;;;;;;;
2021/07/20 04:38:13;;;;;;;1999.90;999.90;;;16.80;99.90;;;;;;5073472;28;20430;-86
2021/07/20 04:44:10;;;;;;;1999.90;999.90;;;16.80;99.90;;;;;;5031035;28;20939;-86
2021/07/20 04:47:23;;;;;;;1999.90;999.90;;;16.80;99.90;;;;;;5014554;28;20991;-85
2021/07/20 04:50:41;;;;;;;;;;;;;;;;;;;;;
2021/07/20 04:53:39;;;;;;;1999.90;999.90;;;16.90;99.90;;;;;;4991816;28;20440;-86
2021/07/20 04:56:29;;;;;;;1999.90;999.90;;;17.00;99.90;;;;;;4986419;28;20443;-85
2021/07/20 04:59:24;;;;;;;1999.90;999.90;;;17.20;99.90;;;;;;4991546;28;20426;-86
2021/07/20 05:02:41;;;;;;;1999.90;999.90;;;17.30;99.90;;;;;;4997096;28;20472;-86
2021/07/20 05:11:05;;;;;;;1999.90;999.90;;;17.50;99.90;;;;;;4889912;26;20809;-86
2021/07/20 05:15:12;;;;;;;;;;;;;;;;;;;;;
2021/07/20 05:18:32;;;;;;;1999.90;999.90;;;17.50;99.90;;;;;;5009071;28;21038;-86
2021/07/20 05:31:40;;;;;;;1999.90;999.90;;;17.50;99.90;;;;;;5044254;28;20427;-86
2021/07/20 05:44:46;;;;;;;1999.90;999.90;;;17.20;99.90;;;;;;4975758;28;20486;-86
2021/07/20 05:47:18;;;;;;;1999.90;999.90;;;17.30;99.90;;;;;;5040714;28;20427;-87
2021/07/20 05:50:25;;;;;;;1999.90;999.90;;;17.20;99.90;;;;;;5056541;28;20411;-86
2021/07/20 06:00:51;;;;;;;1999.90;999.90;;;17.30;99.90;;;;;;4956346;28;20532;-86
2021/07/20 06:03:40;;;;;;;1999.90;999.90;;;17.30;99.90;;;;;;4970364;28;20832;-86
2021/07/20 06:07:03;;;;;;;1999.90;999.90;;;17.20;99.90;;;;;;5013755;28;20437;-86
2021/07/20 06:09:48;;;;;;;1999.90;999.90;;;17.20;99.90;;;;;;4959680;28;20561;-86
2021/07/20 06:12:15;;;;;;;1999.90;999.90;;;17.30;99.90;;;;;;5050465;28;20998;-86
2021/07/20 06:14:42;;;;;;;1999.90;999.90;;;17.30;99.90;;;;;;5057290;28;20403;-86
2021/07/20 06:17:14;;;;;;;1999.90;999.90;;;17.30;99.90;;;;;;5056671;28;20477;-86
2021/07/20 06:19:49;;;;;;;1999.90;999.90;;;17.40;99.90;;;;;;5056481;28;20386;-86
2021/07/20 06:22:21;;;;;;;1999.90;999.90;;;17.30;99.90;;;;;;5057586;28;20379;-87
2021/07/20 06:24:51;;;;;;;1999.90;999.90;;;17.30;99.90;;;;;;5059860;28;20416;-86
2021/07/20 06:27:21;;;;;;;1999.90;999.90;;;17.40;99.90;;;;;;5058311;28;20469;-86
2021/07/20 06:29:58;;;;;;;1999.90;999.90;;;17.40;99.90;;;;;;5058546;28;20411;-85
2021/07/20 06:32:32;;;;;;;1999.90;999.90;;;17.50;99.90;;;;;;5058628;28;20419;-86
2021/07/20 06:35:48;;;;;;;;;;;;;;;;;;;;;
2021/07/20 06:42:26;;;;;;;1999.90;999.90;;;17.50;99.90;;;;;;5055287;28;20984;-86
2021/07/20 06:55:03;;;;;;;1999.90;999.90;;;17.70;99.90;;;;;;4901064;29;20459;-86
2021/07/20 06:58:10;;;;;;;1999.90;999.90;;;17.70;99.90;;;;;;4919518;29;20457;-86
2021/07/20 07:00:52;;;;;;;1999.90;999.90;;;17.90;99.90;;;;;;4977097;28;20420;-86
2021/07/20 07:03:39;;;;;;;1999.90;999.90;;;17.90;99.90;;;;;;4979348;28;20448;-85
2021/07/20 07:06:09;;;;;;;1999.90;999.90;;;17.80;99.90;;;;;;5038636;28;20941;-86
2021/07/20 07:08:40;;;;;;;1999.90;999.90;;;17.80;99.90;;;;;;5037846;28;20468;-86
2021/07/20 07:11:06;;;;;;;1999.90;999.90;;;17.70;99.90;;;;;;5037680;28;20384;-86
2021/07/20 07:13:35;;;;;;;1999.90;999.90;;;17.70;99.90;;;;;;5020698;28;20485;-87
2021/07/20 07:16:02;;;;;;;1999.90;999.90;;;17.70;99.90;;;;;;5038122;28;20907;-85
2021/07/20 07:18:29;;;;;;;1999.90;999.90;;;17.80;99.90;;;;;;5038662;28;20447;-85
2021/07/20 07:20:56;;;;;;;1999.90;999.90;;;17.80;99.90;;;;;;5019188;28;20415;-85
2021/07/20 07:23:24;;;;;;;1999.90;999.90;;;17.80;99.90;;;;;;5036584;28;20407;-85
2021/07/20 07:25:51;;;;;;;1999.90;999.90;;;17.90;99.90;;;;;;5039077;28;20420;-84
2021/07/20 07:28:19;;;;;;;1999.90;999.90;;;18.00;99.90;;;;;;5020939;28;20408;-85
2021/07/20 07:30:48;;;;;;;1999.90;999.90;;;18.10;99.90;;;;;;5039492;28;20507;-87
2021/07/20 07:36:51;;;;;;;1999.90;999.90;;;18.10;99.90;;;;;;4977415;28;20435;-88
2021/07/20 07:50:33;;;;;;;1999.90;999.90;;;18.40;99.90;;;;;;4910681;28;20795;-88
2021/07/20 08:11:26;;;;;;;1999.90;999.90;;;18.50;99.90;;;;;;4832024;29;20866;-87
2021/07/20 08:18:18;;;;;;;1999.90;999.90;;;18.80;99.90;;;;;;5060296;22;20473;-87
2021/07/20 08:21:17;;;;;;;1999.90;999.90;;;18.80;99.90;;;;;;5017034;28;20436;-87
2021/07/20 08:24:22;;;;;;;1999.90;999.90;;;18.90;99.90;;;;;;5036204;28;20457;-87
2021/07/20 08:27:40;;;;;;;1999.90;999.90;;;19.00;99.90;;;;;;5080120;28;20540;-87
2021/07/20 08:30:28;;;;;;;;;;;;;;;;;;;;;
2021/07/20 08:33:50;;;;;;;1999.90;999.90;;;19.30;99.90;;;;;;5099743;28;20477;-87
2021/07/20 08:49:59;;;;;;;1999.90;999.90;;;19.90;99.90;;;;;;4941949;29;20396;-87
2021/07/20 08:53:17;;;;;;;1999.90;999.90;;;19.90;99.90;;;;;;4946104;28;20461;-87
2021/07/20 09:06:57;;;;;;;1999.90;999.90;;;20.20;99.90;;;;;;4981382;22;20479;-87
2021/07/20 09:12:44;;;;;;;1999.90;999.90;;;20.70;99.90;;;;;;5081013;28;20912;-86
2021/07/20 09:27:52;;;;;;;1999.90;999.90;;;21.10;99.90;;;;;;5093459;28;20457;-87
2021/07/20 09:31:00;;;;;;;1999.90;999.90;;;21.20;96.50;;;;;;5099901;28;20382;-86
2021/07/20 09:34:25;;;;;;;;;;;;;;;;;;;;;
2021/07/20 09:46:07;;;;;;;1999.90;999.90;;;21.30;99.90;;;;;;5058539;28;20369;-86
2021/07/20 09:50:06;;;;;;;;;;;;;;;;;;;;;
2021/07/20 09:53:29;;;;;;;1999.90;999.90;;;21.40;99.90;;;;;;4963251;28;20414;-87
2021/07/20 09:56:55;;;;;;;1999.90;999.90;;;21.30;98.10;;;;;;4974187;28;20513;-87
2021/07/20 10:00:18;;;;;;;1999.90;999.90;;;21.20;98.90;;;;;;4977374;28;20956;-87
2021/07/20 10:14:00;;;;;;;1999.90;999.90;;;21.20;99.30;;;;;;4979901;28;20483;-86
2021/07/20 10:16:48;;;;;;;1999.90;999.90;;;21.50;98.90;;;;;;4986308;28;20460;-86
2021/07/20 10:20:34;;;;;;;1999.90;999.90;;;21.80;96.90;;;;;;5019491;28;20422;-86
2021/07/20 10:29:55;;;;;;;1999.90;999.90;;;22.60;87.80;;;;;;4975875;28;20973;-86
2021/07/20 10:33:24;;;;;;;;;;;;;;;;;;;;;
2021/07/20 10:41:48;;;;;;;;;;;;;;;;;;;;;
2021/07/20 10:44:13;;;;;;;1999.90;999.90;;;23.80;53.30;;;;;;5010434;28;20488;-86
2021/07/20 10:50:45;;;;;;;1999.90;999.90;;;23.50;55.30;;;;;;5040668;28;20415;-86
2021/07/20 10:54:07;;;;;;;1999.90;999.90;;;23.30;63.50;;;;;;5036813;28;20400;-87
2021/07/20 11:06:21;;;;;;;1999.90;999.90;;;22.50;58.90;;;;;;5083466;28;20436;-87
2021/07/20 11:12:25;;;;;;;1999.90;999.90;;;23.10;63.10;;;;;;5098620;28;20401;-86
2021/07/20 12:26:24;;;;;;;;;;;;;;;;;;;;;
2021/07/20 12:29:17;;;;;;;1999.90;999.90;;;26.10;4.20;;;;;;5013285;28;20403;-86
2021/07/20 13:08:00;;;;;;;1999.90;999.90;;;26.30;1.00;;;;;;4935406;29;20983;-86
2021/07/20 13:22:16;;;;;;;1999.90;999.90;;;26.00;1.00;;;;;;4718287;30;20883;-87
2021/07/20 13:28:52;;;;;;;;;;;;;;;;;;;;;
2021/07/20 13:32:19;;;;;;;;;;;;;;;;;;;;;
2021/07/20 13:35:21;;;;;;;;;;;;;;;;;;;;;
2021/07/20 13:38:59;;;;;;;1999.90;999.90;;;26.20;1.00;;;;;;5080962;22;20851;-86
2021/07/20 13:41:58;;;;;;;;;;;;;;;;;;;;;
2021/07/20 13:44:54;;;;;;;1999.90;999.90;;;26.10;1.00;;;;;;5078598;28;20381;-87
2021/07/20 13:51:22;;;;;;;1999.90;999.90;;;25.70;1.00;;;;;;5043485;28;20410;-88
2021/07/20 13:55:10;;;;;;;1999.90;999.90;;;25.80;1.00;;;;;;5077575;28;20512;-87
2021/07/20 15:14:31;;;;;;;;;;;;;;;;;;;;;
2021/07/20 15:33:21;;;;;;;1999.90;999.90;;;27.30;1.00;;;;;;4880653;29;20399;-83
2021/07/20 15:43:42;;;;;;;1999.90;999.90;;;27.40;1.00;;;;;;4981521;28;20409;-84
2021/07/20 16:24:25;;;;;;;;;;;;;;;;;;;;;
2021/07/20 16:41:42;;;;;;;1999.90;999.90;;;30.40;1.00;;;;;;4993576;28;20766;-83
2021/07/20 16:48:02;;;;;;;;;;;;;;;;;;;;;
2021/07/20 16:50:28;;;;;;;1999.90;999.90;;;30.40;1.00;;;;;;4993178;28;20793;-83
2021/07/20 16:59:58;;;;;;;1999.90;999.90;;;29.60;1.00;;;;;;4997879;28;21022;-83
2021/07/20 17:02:23;;;;;;;1999.90;999.90;;;30.10;1.00;;;;;;4998115;28;20928;-83
2021/07/20 17:05:48;;;;;;;1999.90;999.90;;;30.60;1.00;;;;;;4997687;28;20504;-83
2021/07/20 17:08:29;;;;;;;1999.90;999.90;;;30.80;1.00;;;;;;4898634;29;20729;-84
2021/07/20 17:11:27;;;;;;;1999.90;999.90;;;30.50;1.00;;;;;;4920458;29;20489;-84
2021/07/20 17:21:19;;;;;;;1999.90;999.90;;;29.80;1.00;;;;;;4826611;29;20910;-83
2021/07/20 17:27:34;;;;;;;1999.90;999.90;;;29.80;1.00;;;;;;4795860;29;20445;-83
2021/07/20 17:31:09;;;;;;;;;;;;;;;;;;;;;
2021/07/20 17:37:19;;;;;;;1999.90;999.90;;;27.80;1.00;;;;;;4748208;30;20992;-83
2021/07/20 17:50:29;;;;;;;1999.90;999.90;;;27.00;1.00;;;;;;4774005;29;20398;-83
2021/07/20 17:53:26;;;;;;;1999.90;999.90;;;26.60;1.00;;;;;;4824292;29;20426;-85
2021/07/20 18:01:11;;;;;;;1999.90;999.90;;;26.20;1.00;;;;;;5055916;28;20471;-83
2021/07/20 18:04:12;;;;;;;;;;;;;;;;;;;;;
2021/07/20 18:10:33;;;;;;;1999.90;999.90;;;25.50;1.00;;;;;;4999109;28;20433;-82
2021/07/20 18:14:01;;;;;;;1999.90;999.90;;;25.30;1.00;;;;;;4998921;28;20738;-83
2021/07/20 18:17:22;;;;;;;1999.90;999.90;;;25.30;1.00;;;;;;4981396;28;20444;-82
2021/07/20 18:23:59;;;;;;;1999.90;999.90;;;24.90;1.00;;;;;;5035879;28;20403;-83
2021/07/20 18:27:00;;;;;;;1999.90;999.90;;;24.60;1.00;;;;;;5098062;22;20484;-83
2021/07/20 18:29:31;;;;;;;1999.90;999.90;;;24.30;1.00;;;;;;5069236;28;20409;-82
2021/07/20 18:32:14;;;;;;;1999.90;999.90;;;24.10;1.00;;;;;;5076422;28;20386;-83
2021/07/20 18:35:09;;;;;;;1999.90;999.90;;;24.10;1.00;;;;;;5078105;28;20399;-82
2021/07/20 18:38:15;;;;;;;1999.90;999.90;;;24.20;1.00;;;;;;5094226;28;20838;-82
2021/07/20 18:41:18;;;;;;;1999.90;999.90;;;24.30;1.00;;;;;;5096810;28;20399;-82
2021/07/20 18:44:07;;;;;;;1999.90;999.90;;;24.30;1.00;;;;;;5097085;28;20378;-83
2021/07/20 18:46:48;;;;;;;;;;;;;;;;;;;;;
2021/07/20 18:50:21;;;;;;;1999.90;999.90;;;24.30;1.00;;;;;;5057194;28;20510;-82
2021/07/20 18:59:42;;;;;;;1999.90;999.90;;;24.20;1.00;;;;;;4951878;28;20439;-82
2021/07/20 19:02:20;;;;;;;1999.90;999.90;;;24.10;1.00;;;;;;4937163;29;20774;-83
2021/07/20 19:05:10;;;;;;;1999.90;999.90;;;24.00;1.00;;;;;;4975263;28;20826;-81
2021/07/20 19:07:35;;;;;;;1999.90;999.90;;;24.00;1.00;;;;;;4960265;28;20439;-83
2021/07/20 19:10:20;;;;;;;1999.90;999.90;;;23.90;1.00;;;;;;4962375;28;20426;-84
2021/07/20 19:12:55;;;;;;;1999.90;999.90;;;23.90;1.00;;;;;;4981844;28;20190;-84
2021/07/20 19:16:05;;;;;;;1999.90;999.90;;;23.90;1.00;;;;;;4979481;28;20384;-84
2021/07/20 19:25:16;;;;;;;1999.90;999.90;;;23.40;1.00;;;;;;4998427;28;20410;-83
2021/07/20 19:28:29;;;;;;;1999.90;999.90;;;23.40;1.00;;;;;;4980950;28;20493;-84
2021/07/20 19:31:29;;;;;;;1999.90;999.90;;;23.40;1.00;;;;;;4996785;28;20453;-84
2021/07/20 19:34:50;;;;;;;1999.90;999.90;;;23.40;1.00;;;;;;5017985;28;20411;-83
2021/07/20 19:38:11;;;;;;;1999.90;999.90;;;23.40;1.00;;;;;;5038538;28;20558;-83
2021/07/20 19:41:27;;;;;;;1999.90;999.90;;;23.40;1.00;;;;;;5021539;28;20413;-85
2021/07/20 19:44:42;;;;;;;;;;;;;;;;;;;;;
2021/07/20 19:48:18;;;;;;;1999.90;999.90;;;23.20;5.70;;;;;;5057666;28;20511;-83
2021/07/20 19:57:16;;;;;;;1999.90;999.90;;;23.00;12.20;;;;;;4992549;28;20464;-83
2021/07/20 20:00:26;;;;;;;1999.90;999.90;;;22.90;14.60;;;;;;4978236;28;20418;-84
2021/07/20 20:03:38;;;;;;;1999.90;999.90;;;22.90;16.50;;;;;;5038799;28;20477;-83
2021/07/20 20:06:44;;;;;;;1999.90;999.90;;;22.80;20.30;;;;;;5010457;28;20438;-84
2021/07/20 20:10:09;;;;;;;1999.90;999.90;;;22.60;21.40;;;;;;5056804;28;20426;-83
2021/07/20 20:12:38;;;;;;;1999.90;999.90;;;22.30;27.20;;;;;;4959428;28;20469;-85
2021/07/20 20:18:04;;;;;;;1999.90;999.90;;;22.00;43.00;;;;;;5084225;22;20536;-84
2021/07/20 20:21:04;;;;;;;1999.90;999.90;;;21.80;58.20;;;;;;5076434;28;20430;-84
2021/07/20 20:24:01;;;;;;;1999.90;999.90;;;21.90;59.00;;;;;;5015395;28;20593;-84
2021/07/20 20:26:57;;;;;;;1999.90;999.90;;;21.90;64.60;;;;;;4994181;28;20966;-85
2021/07/20 20:29:47;;;;;;;1999.90;999.90;;;21.70;65.10;;;;;;4994449;28;21008;-85
2021/07/20 20:33:23;;;;;;;1999.90;999.90;;;21.50;72.90;;;;;;4935676;29;20417;-85
2021/07/20 20:36:05;;;;;;;;;;;;;;;;;;;;;
2021/07/20 20:39:32;;;;;;;1999.90;999.90;;;21.00;89.20;;;;;;4973220;28;20469;-85
2021/07/20 21:06:15;;;;;;;;;;;;;;;;;;;;;
